Aérodrome :
LOGIN :

S'inscrire | Disclaimer

   EN    FR    IT 

 










Légende :    VFR   VFR Marginal   IFR   IFR Intensif   IFR Très Intensif
Visi : 
Plafond : 
>= 8 km
>= 3000ft
5 à 8 km
1000 à 3000 ft
1500m à 5 km
500 à 1000 ft
800 à 1500m
200 à 500 ft
< 800m
< 200 ft
Symboles :   Orages  Brouillard  Fortes neiges  Fortes précipitations  Vent > 20 kt
SIGMETs :   Divers  Orages  Givrage  Turbulence  Onde Orograph.  Cendres Volcan.







- Altitude de l'aérodrome : 100 ft


EBDT - Schaffen

DERNIER METAR :
  • 131755Z AUTO 18011KT 9999 -RA FEW006/// BKN009/// BKN011/// 06/06 Q0991 GRN

METARs EXPIRÉS :
  • 131725Z AUTO 18011KT 7000 -RA FEW007/// SCT009/// BKN011/// 06/05 Q0993 GRN
  • 131717Z AUTO 19012KT 9000 RA FEW007/// SCT011/// BKN017/// 06/05 Q0993 GRN
  • 131713Z AUTO 19012KT 8000 -RA FEW006/// SCT015/// BKN021/// 06/05 Q0993 WHT
  • 131655Z AUTO 19012KT 9999 -RA FEW005/// SCT009/// BKN037/// 06/05 Q0994 GRN
  • 131643Z AUTO 19012KT 9999 -RA SCT006/// BKN008/// BKN018/// 05/05 Q0994 YLO
  • 131625Z AUTO 18010KT 9999 -RA FEW006/// BKN008/// BKN026/// 05/05 Q0995 GRN
  • 131555Z AUTO 18009KT 9999 -RA FEW007/// SCT012/// BKN015/// 05/05 Q0996 GRN
  • 131525Z 19008KT 9000 -RA BKN009 BKN015 05/04 Q0997 GRN GRN TEMPO YLO

TAF TAF EBDT
Valide du 13 à 19h jusqu'au 14 à 07h UTC


131541Z 1319/1407 24012G25KT 8000 SCT012 BKN020
BECMG 1320/1322 26015G30KT 6000 -RA/-SHRA SCT010 BKN017
TEMPO 1322/1404 27018G32KT 3000 RA/SHRA SCT008 BKN015
BECMG 1403/1405 25015G25KT 8000 SCT015
Pas de NOTAMs connus pour ce terrain.
1 SIGMET publié pour la FIR Brussels (EBBU) :
 
Turbulence forte
EBBU SIGMET 03 VALID 131600/132000 EBBR
EBBU BRUSSELS FIR SEV TURB FCST W OF LINE N5130 E00500 - N5020 E00400 SFC/FL50 MOV E35KT INTSF=



MET'MAP, la Météo Aéronautique d'un coup d'oeil ! - Copyright ORBIFLY Décembre 2007 - Disclaimer

ORBIFLY MET'MAP TEAM :

Programmation & Développement : Alexandra Zaïnal
Conception & Développement : Baudouin d'Aumeries
Co-Programmation & Développement : Marc-Olivier Méhu
Soutien technique & logistique : Manuel Goepfert

Contact : metmap@orbifly.com




SOURCES & CREDITS :

   NOAA